Time;durP1;ratioP1;P1;durP2;ratioP2;P2;SDS_P1;SDS_P2;PMS_P1;PMS_P2;Temp;Humidity;BMP_temperature;BMP_pressure;BME280_temperature;BME280_humidity;BME280_pressure;Samples;Min_cycle;Max_cycle;Signal;HPM_P1;HPM_P2
2021/08/02 00:01:45;;;;;;;;;;;27.70;94.40;;;;;;5126604;28;19949;-47
2021/08/02 00:04:11;;;;;;;;;;;27.60;94.40;;;;;;5126808;28;19912;-50
2021/08/02 00:07:07;;;;;;;;;;;27.60;94.40;;;;;;5126421;28;19903;-47
2021/08/02 00:09:35;;;;;;;;;;;27.60;94.40;;;;;;5108373;28;19911;-47
2021/08/02 00:12:01;;;;;;;;;;;27.60;94.40;;;;;;5126615;28;19975;-43
2021/08/02 00:14:27;;;;;;;;;;;27.60;94.40;;;;;;5126169;28;19912;-45
2021/08/02 00:16:54;;;;;;;;;;;27.60;94.40;;;;;;5108161;28;20069;-43
2021/08/02 00:19:21;;;;;;;;;;;27.60;94.40;;;;;;5126337;28;19982;-44
2021/08/02 00:21:47;;;;;;;;;;;27.60;94.50;;;;;;5125046;28;19908;-44
2021/08/02 00:24:17;;;;;;;;;;;27.60;94.40;;;;;;5126115;28;19941;-44
2021/08/02 00:26:43;;;;;;;;;;;27.50;94.50;;;;;;5126177;28;19904;-42
2021/08/02 00:29:10;;;;;;;;;;;27.60;94.50;;;;;;5126229;28;19982;-42
2021/08/02 00:31:36;;;;;;;;;;;27.50;94.50;;;;;;5107211;28;20293;-42
2021/08/02 00:34:04;;;;;;;;;;;27.50;94.40;;;;;;5108045;28;19979;-41
2021/08/02 00:36:48;;;;;;;;;;;27.40;94.50;;;;;;5125738;28;19903;-42
2021/08/02 00:39:25;;;;;;;;;;;27.30;94.60;;;;;;5125891;28;19990;-53
2021/08/02 00:41:57;;;;;;;;;;;27.40;94.60;;;;;;5125747;28;19908;-44
2021/08/02 00:44:42;;;;;;;;;;;27.40;94.50;;;;;;5107402;28;19912;-43
2021/08/02 00:47:12;;;;;;;;;;;27.30;94.40;;;;;;5126005;28;19911;-48
2021/08/02 00:49:41;;;;;;;;;;;27.20;94.50;;;;;;5126450;28;19951;-41
2021/08/02 00:52:08;;;;;;;;;;;27.30;94.60;;;;;;5107893;28;19920;-44
2021/08/02 00:54:34;;;;;;;;;;;27.20;94.50;;;;;;5107712;28;19912;-45
2021/08/02 00:57:00;;;;;;;;;;;27.20;94.50;;;;;;5125235;28;19912;-42
2021/08/02 00:59:28;;;;;;;;;;;27.20;94.50;;;;;;5125329;28;20206;-44
2021/08/02 01:01:54;;;;;;;;;;;27.20;94.50;;;;;;5125891;28;20166;-42
2021/08/02 01:04:23;;;;;;;;;;;27.20;94.50;;;;;;5125696;28;19935;-49
2021/08/02 01:06:50;;;;;;;;;;;27.20;94.40;;;;;;5125442;28;19924;-42
2021/08/02 01:09:17;;;;;;;;;;;27.20;94.60;;;;;;5107209;28;19947;-40
2021/08/02 01:11:44;;;;;;;;;;;27.20;94.60;;;;;;5125235;28;19904;-40
2021/08/02 01:14:10;;;;;;;;;;;27.20;94.60;;;;;;5125007;28;19925;-49
2021/08/02 01:16:38;;;;;;;;;;;27.10;94.50;;;;;;5125341;28;19911;-45
2021/08/02 01:19:09;;;;;;;;;;;27.10;94.60;;;;;;5106890;28;19903;-44
2021/08/02 01:21:40;;;;;;;;;;;27.10;94.70;;;;;;5125093;28;19914;-43
2021/08/02 01:24:07;;;;;;;;;;;27.10;94.70;;;;;;5124576;28;19903;-49
2021/08/02 01:26:45;;;;;;;;;;;27.10;94.80;;;;;;5125082;28;20077;-42
2021/08/02 01:29:30;;;;;;;;;;;27.10;94.70;;;;;;5124698;28;19912;-45
2021/08/02 01:31:56;;;;;;;;;;;27.10;94.70;;;;;;5124815;28;19912;-46
2021/08/02 01:34:22;;;;;;;;;;;27.10;94.80;;;;;;5124766;28;19961;-42
2021/08/02 01:36:48;;;;;;;;;;;27.10;95.00;;;;;;5125325;28;19924;-41
2021/08/02 01:39:15;;;;;;;;;;;27.10;94.80;;;;;;5124978;28;20192;-43
2021/08/02 01:41:41;;;;;;;;;;;27.10;94.80;;;;;;5124878;28;19937;-44
2021/08/02 01:44:07;;;;;;;;;;;27.00;94.70;;;;;;5124703;28;19904;-48
2021/08/02 01:46:39;;;;;;;;;;;27.00;94.70;;;;;;5107557;28;19915;-41
2021/08/02 01:49:06;;;;;;;;;;;27.00;94.80;;;;;;5106964;28;19908;-40
2021/08/02 01:51:36;;;;;;;;;;;27.10;94.90;;;;;;5103373;28;19916;-41
2021/08/02 01:54:17;;;;;;;;;;;27.00;94.90;;;;;;5103586;28;20127;-50
2021/08/02 01:56:50;;;;;;;;;;;27.00;94.90;;;;;;5104171;28;19911;-41
2021/08/02 01:59:18;;;;;;;;;;;27.00;94.90;;;;;;5102767;28;20199;-42
2021/08/02 02:02:05;;;;;;;;;;;27.00;94.90;;;;;;5105814;28;19996;-42
2021/08/02 02:04:36;;;;;;;;;;;27.10;94.90;;;;;;5111892;28;19927;-42
2021/08/02 02:07:02;;;;;;;;;;;27.00;94.90;;;;;;5122316;28;19939;-41
2021/08/02 02:09:31;;;;;;;;;;;27.00;94.90;;;;;;5113797;28;19985;-42
2021/08/02 02:12:00;;;;;;;;;;;27.00;94.90;;;;;;5113035;28;19916;-42
2021/08/02 02:14:27;;;;;;;;;;;27.00;94.90;;;;;;5112747;28;19931;-45
2021/08/02 02:16:56;;;;;;;;;;;27.00;94.90;;;;;;5124558;28;19916;-51
2021/08/02 02:19:23;;;;;;;;;;;27.00;94.90;;;;;;5124333;28;19918;-42
2021/08/02 02:21:53;;;;;;;;;;;27.00;94.90;;;;;;5124070;28;19923;-42
2021/08/02 02:24:19;;;;;;;;;;;27.00;95.00;;;;;;5124494;28;20188;-41
2021/08/02 02:26:46;;;;;;;;;;;27.00;95.00;;;;;;5124326;28;20214;-50
2021/08/02 02:29:14;;;;;;;;;;;27.00;95.00;;;;;;5124140;28;19911;-43
2021/08/02 02:31:42;;;;;;;;;;;27.00;95.00;;;;;;5124646;28;19908;-45
2021/08/02 02:34:09;;;;;;;;;;;27.00;95.10;;;;;;5124689;28;19911;-45
2021/08/02 02:36:36;;;;;;;;;;;27.00;95.10;;;;;;5124365;28;19971;-45
2021/08/02 02:39:04;;;;;;;;;;;27.00;95.10;;;;;;5124572;28;19904;-45
2021/08/02 02:41:31;;;;;;;;;;;27.00;95.10;;;;;;5124200;28;19919;-43
2021/08/02 02:43:58;;;;;;;;;;;27.00;95.10;;;;;;5124925;28;19907;-43
2021/08/02 02:46:25;;;;;;;;;;;26.90;95.10;;;;;;5109917;28;20134;-43
2021/08/02 02:48:52;;;;;;;;;;;27.00;95.20;;;;;;5128396;28;20202;-41
2021/08/02 02:51:19;;;;;;;;;;;27.00;95.20;;;;;;5109620;28;19920;-43
2021/08/02 02:53:45;;;;;;;;;;;27.00;95.20;;;;;;5110081;28;19907;-42
2021/08/02 02:56:13;;;;;;;;;;;27.00;95.20;;;;;;5109703;28;20295;-43
2021/08/02 02:58:40;;;;;;;;;;;27.00;95.00;;;;;;5127950;28;19953;-44
2021/08/02 03:01:07;;;;;;;;;;;27.00;95.10;;;;;;5127931;28;20199;-42
2021/08/02 03:03:38;;;;;;;;;;;27.00;95.10;;;;;;5099400;28;19912;-43
2021/08/02 03:06:05;;;;;;;;;;;27.00;95.20;;;;;;5108523;28;19908;-44
2021/08/02 03:08:32;;;;;;;;;;;26.90;95.20;;;;;;5107726;28;19908;-42
2021/08/02 03:11:00;;;;;;;;;;;27.00;95.20;;;;;;5107153;28;19915;-45
2021/08/02 03:13:26;;;;;;;;;;;27.00;95.20;;;;;;5107245;28;20100;-43
2021/08/02 03:15:52;;;;;;;;;;;27.00;95.20;;;;;;5107204;28;19947;-43
2021/08/02 03:18:19;;;;;;;;;;;27.00;95.30;;;;;;5107415;28;19908;-46
2021/08/02 03:20:45;;;;;;;;;;;27.00;95.30;;;;;;5106911;28;19935;-44
2021/08/02 03:23:16;;;;;;;;;;;27.00;95.30;;;;;;5107384;28;19908;-45
2021/08/02 03:26:08;;;;;;;;;;;27.10;95.30;;;;;;5107244;28;20227;-43
2021/08/02 03:31:43;;;;;;;;;;;27.10;95.20;;;;;;5107959;28;19931;-44
2021/08/02 03:34:12;;;;;;;;;;;27.00;95.20;;;;;;5088987;28;19931;-42
2021/08/02 03:36:39;;;;;;;;;;;27.00;95.20;;;;;;5106614;28;19904;-42
2021/08/02 03:39:05;;;;;;;;;;;27.00;95.20;;;;;;5106823;28;19974;-48
2021/08/02 03:41:41;;;;;;;;;;;27.00;95.10;;;;;;5089053;28;19907;-42
2021/08/02 03:44:08;;;;;;;;;;;27.10;95.10;;;;;;5107903;28;19965;-45
2021/08/02 03:46:38;;;;;;;;;;;27.00;95.20;;;;;;5106675;28;19904;-43
2021/08/02 03:49:04;;;;;;;;;;;27.00;95.20;;;;;;5106328;28;19908;-42
2021/08/02 03:51:43;;;;;;;;;;;27.00;95.20;;;;;;5106295;28;20123;-46
2021/08/02 03:54:09;;;;;;;;;;;27.10;95.30;;;;;;5106981;28;19908;-42
2021/08/02 03:56:36;;;;;;;;;;;27.10;95.30;;;;;;5106486;28;20100;-41
2021/08/02 03:59:02;;;;;;;;;;;27.00;95.20;;;;;;5105913;28;19942;-42
2021/08/02 04:01:28;;;;;;;;;;;27.00;95.20;;;;;;5088434;28;19919;-43
2021/08/02 04:03:54;;;;;;;;;;;27.00;95.20;;;;;;5105923;28;19912;-45
2021/08/02 04:06:20;;;;;;;;;;;27.00;95.30;;;;;;5105976;28;19911;-42
2021/08/02 04:08:47;;;;;;;;;;;27.00;95.20;;;;;;5125674;28;19914;-47
2021/08/02 04:11:13;;;;;;;;;;;27.00;95.20;;;;;;5125932;28;20143;-42
2021/08/02 04:13:39;;;;;;;;;;;27.00;95.20;;;;;;5097323;28;20147;-44
2021/08/02 04:16:06;;;;;;;;;;;27.00;95.30;;;;;;5125311;28;19908;-45
2021/08/02 04:18:32;;;;;;;;;;;27.00;95.20;;;;;;5126109;28;19908;-44
2021/08/02 04:20:58;;;;;;;;;;;27.00;95.20;;;;;;5126187;28;19933;-47
2021/08/02 04:23:24;;;;;;;;;;;27.00;95.20;;;;;;5126893;28;19950;-49
2021/08/02 04:25:50;;;;;;;;;;;27.00;95.30;;;;;;5107902;28;19915;-47
2021/08/02 04:28:17;;;;;;;;;;;27.00;95.30;;;;;;5126440;28;19908;-43
2021/08/02 04:30:43;;;;;;;;;;;27.00;95.30;;;;;;5107865;28;19908;-45
2021/08/02 04:33:09;;;;;;;;;;;27.00;95.30;;;;;;5126310;28;19984;-46
2021/08/02 04:35:36;;;;;;;;;;;27.00;95.30;;;;;;5126048;28;19975;-43
2021/08/02 04:38:02;;;;;;;;;;;27.00;95.30;;;;;;5126396;28;19953;-47
2021/08/02 04:40:28;;;;;;;;;;;27.00;95.30;;;;;;5125980;28;19912;-49
2021/08/02 04:42:54;;;;;;;;;;;27.00;95.40;;;;;;5126041;28;19915;-48
2021/08/02 04:45:20;;;;;;;;;;;27.00;95.30;;;;;;5125771;28;19908;-43
2021/08/02 04:47:46;;;;;;;;;;;27.00;95.40;;;;;;5125899;28;19908;-46
2021/08/02 04:50:13;;;;;;;;;;;27.00;95.40;;;;;;5125396;28;19912;-41
2021/08/02 04:52:39;;;;;;;;;;;27.00;95.30;;;;;;5125693;28;19922;-42
2021/08/02 04:55:05;;;;;;;;;;;26.90;95.30;;;;;;5125381;28;19939;-42
2021/08/02 04:57:31;;;;;;;;;;;26.90;95.40;;;;;;5125487;28;20119;-42
2021/08/02 04:59:58;;;;;;;;;;;27.00;95.40;;;;;;5125526;28;20190;-43
2021/08/02 05:02:25;;;;;;;;;;;26.90;95.40;;;;;;5126366;28;19934;-41
2021/08/02 05:04:51;;;;;;;;;;;27.00;95.40;;;;;;5125686;28;20112;-50
2021/08/02 05:07:17;;;;;;;;;;;26.90;95.40;;;;;;5125011;28;19911;-48
2021/08/02 05:09:43;;;;;;;;;;;26.90;95.40;;;;;;5125444;28;19930;-48
2021/08/02 05:12:10;;;;;;;;;;;26.90;95.40;;;;;;5125306;28;19915;-52
2021/08/02 05:14:36;;;;;;;;;;;26.90;95.40;;;;;;5125174;28;19908;-49
2021/08/02 05:17:03;;;;;;;;;;;26.90;95.40;;;;;;5125188;28;19908;-46
2021/08/02 05:19:29;;;;;;;;;;;26.90;95.50;;;;;;5125026;28;19915;-48
2021/08/02 05:21:55;;;;;;;;;;;26.90;95.50;;;;;;5124987;28;19920;-48
2021/08/02 05:24:21;;;;;;;;;;;26.90;95.50;;;;;;5125312;28;19915;-50
2021/08/02 05:26:47;;;;;;;;;;;26.90;95.60;;;;;;5124982;28;19971;-47
2021/08/02 05:29:13;;;;;;;;;;;26.90;95.60;;;;;;5124989;28;19977;-47
2021/08/02 05:31:39;;;;;;;;;;;26.90;95.60;;;;;;5124942;28;19907;-46
2021/08/02 05:34:06;;;;;;;;;;;26.90;95.60;;;;;;5124930;28;19904;-52
2021/08/02 05:36:32;;;;;;;;;;;26.90;95.60;;;;;;5124798;28;19911;-48
2021/08/02 05:38:58;;;;;;;;;;;26.90;95.60;;;;;;5125000;28;19907;-44
2021/08/02 05:41:24;;;;;;;;;;;26.90;95.60;;;;;;5124610;28;19908;-50
2021/08/02 05:43:50;;;;;;;;;;;26.90;95.60;;;;;;5125172;28;19912;-53
2021/08/02 05:46:16;;;;;;;;;;;26.90;95.60;;;;;;5124990;28;19904;-46
2021/08/02 05:48:43;;;;;;;;;;;26.80;95.50;;;;;;5125225;28;19912;-46
2021/08/02 05:51:10;;;;;;;;;;;26.90;95.60;;;;;;5124585;28;20142;-47
2021/08/02 05:53:36;;;;;;;;;;;26.80;95.60;;;;;;5125243;28;19911;-46
2021/08/02 05:56:02;;;;;;;;;;;26.90;95.60;;;;;;5124613;28;20116;-45
2021/08/02 05:58:28;;;;;;;;;;;26.90;95.60;;;;;;5124990;28;19912;-49
2021/08/02 06:00:54;;;;;;;;;;;26.80;95.60;;;;;;5124463;28;19908;-46
2021/08/02 06:03:21;;;;;;;;;;;26.80;95.70;;;;;;5124779;28;19912;-47
2021/08/02 06:05:48;;;;;;;;;;;26.80;95.70;;;;;;5124536;28;20140;-52
2021/08/02 06:08:14;;;;;;;;;;;26.80;95.70;;;;;;5125107;28;19947;-44
2021/08/02 06:10:40;;;;;;;;;;;26.80;95.80;;;;;;5124787;28;19966;-50
2021/08/02 06:13:06;;;;;;;;;;;26.80;95.90;;;;;;5124980;28;20200;-43
2021/08/02 06:15:32;;;;;;;;;;;26.80;95.90;;;;;;5124419;28;19911;-43
2021/08/02 06:17:58;;;;;;;;;;;26.80;95.90;;;;;;5125692;28;19934;-44
2021/08/02 06:20:25;;;;;;;;;;;26.80;96.00;;;;;;5128575;28;19927;-49
2021/08/02 06:22:51;;;;;;;;;;;26.70;96.00;;;;;;5128753;28;19912;-48
2021/08/02 06:25:17;;;;;;;;;;;26.80;95.90;;;;;;5128347;28;19908;-46
2021/08/02 06:27:43;;;;;;;;;;;26.70;95.90;;;;;;5128828;28;19912;-48
2021/08/02 06:30:10;;;;;;;;;;;26.80;95.90;;;;;;5128182;28;19966;-47
2021/08/02 06:32:36;;;;;;;;;;;26.80;95.80;;;;;;5110340;28;19949;-49
2021/08/02 06:35:02;;;;;;;;;;;26.70;95.80;;;;;;5128490;28;19904;-48
2021/08/02 06:37:28;;;;;;;;;;;26.70;95.80;;;;;;5128476;28;19919;-46
2021/08/02 06:39:54;;;;;;;;;;;26.70;95.80;;;;;;5128131;28;19904;-44
2021/08/02 06:42:21;;;;;;;;;;;26.70;95.80;;;;;;5128071;28;19916;-48
2021/08/02 06:44:47;;;;;;;;;;;26.70;95.80;;;;;;5128015;28;19927;-49
2021/08/02 06:47:13;;;;;;;;;;;26.70;95.80;;;;;;5128026;28;19916;-45
2021/08/02 06:49:40;;;;;;;;;;;26.70;95.80;;;;;;5127960;28;20135;-46
2021/08/02 06:52:06;;;;;;;;;;;26.70;95.90;;;;;;5127795;28;19943;-45
2021/08/02 06:54:32;;;;;;;;;;;26.70;95.90;;;;;;5128144;28;20157;-50
2021/08/02 06:56:58;;;;;;;;;;;26.70;95.90;;;;;;5128050;28;20154;-48
2021/08/02 06:59:24;;;;;;;;;;;26.70;95.90;;;;;;5127790;28;20192;-43
2021/08/02 07:01:50;;;;;;;;;;;26.70;95.90;;;;;;5127752;28;20206;-48
2021/08/02 07:04:17;;;;;;;;;;;26.70;95.90;;;;;;5127664;28;20096;-44
2021/08/02 07:06:44;;;;;;;;;;;26.70;95.90;;;;;;5127779;28;19986;-48
2021/08/02 07:09:11;;;;;;;;;;;26.70;95.90;;;;;;5127555;28;19958;-49
2021/08/02 07:11:37;;;;;;;;;;;26.70;95.90;;;;;;5127655;28;19903;-43
2021/08/02 07:14:03;;;;;;;;;;;26.70;95.90;;;;;;5127658;28;19904;-47
2021/08/02 07:16:29;;;;;;;;;;;26.70;95.90;;;;;;5127323;28;19926;-49
2021/08/02 07:18:55;;;;;;;;;;;26.60;96.00;;;;;;5127870;28;19903;-47
2021/08/02 07:21:22;;;;;;;;;;;26.60;96.00;;;;;;5109089;28;19981;-45
2021/08/02 07:23:48;;;;;;;;;;;26.70;96.10;;;;;;5127892;28;19975;-43
2021/08/02 07:26:14;;;;;;;;;;;26.60;96.00;;;;;;5127324;28;19918;-46
2021/08/02 07:28:41;;;;;;;;;;;26.60;96.00;;;;;;5127971;28;19911;-47
2021/08/02 07:31:07;;;;;;;;;;;26.60;96.00;;;;;;5126591;28;19966;-48
2021/08/02 07:33:33;;;;;;;;;;;26.60;96.00;;;;;;5127716;28;20214;-46
2021/08/02 07:35:59;;;;;;;;;;;26.60;96.00;;;;;;5127056;28;19904;-46
2021/08/02 07:38:25;;;;;;;;;;;26.60;96.00;;;;;;5127355;28;19956;-45
2021/08/02 07:40:52;;;;;;;;;;;26.60;96.00;;;;;;5126886;28;19907;-55
2021/08/02 07:43:18;;;;;;;;;;;26.60;96.00;;;;;;5127481;28;19912;-50
2021/08/02 07:45:44;;;;;;;;;;;26.60;96.10;;;;;;5126888;28;19904;-43
2021/08/02 07:48:10;;;;;;;;;;;26.60;96.10;;;;;;5108838;28;20104;-43
2021/08/02 07:50:36;;;;;;;;;;;26.60;96.10;;;;;;5126833;28;19911;-42
2021/08/02 07:53:03;;;;;;;;;;;26.60;96.10;;;;;;5126989;28;19951;-47
2021/08/02 07:55:29;;;;;;;;;;;26.60;96.10;;;;;;5126844;28;19908;-49
2021/08/02 07:57:56;;;;;;;;;;;26.50;96.10;;;;;;5127036;28;20232;-44
2021/08/02 08:00:22;;;;;;;;;;;26.50;96.30;;;;;;5126984;28;20107;-50
2021/08/02 08:02:48;;;;;;;;;;;26.50;96.10;;;;;;5126779;28;19990;-45
2021/08/02 08:05:14;;;;;;;;;;;26.50;96.20;;;;;;5126752;28;19914;-49
2021/08/02 08:07:42;;;;;;;;;;;26.50;96.10;;;;;;5126724;28;19931;-47
2021/08/02 08:10:08;;;;;;;;;;;26.50;96.10;;;;;;5126536;28;20085;-49
2021/08/02 08:12:34;;;;;;;;;;;26.50;96.20;;;;;;5126510;28;19978;-47
2021/08/02 08:15:00;;;;;;;;;;;26.50;96.20;;;;;;5126473;28;19915;-48
2021/08/02 08:17:27;;;;;;;;;;;26.50;96.20;;;;;;5126363;28;19931;-45
2021/08/02 08:19:53;;;;;;;;;;;26.50;96.20;;;;;;5126370;28;20138;-42
2021/08/02 08:22:19;;;;;;;;;;;26.40;96.30;;;;;;5126307;28;20242;-43
2021/08/02 08:24:49;;;;;;;;;;;26.40;96.20;;;;;;5126047;28;19914;-47
2021/08/02 08:27:15;;;;;;;;;;;26.50;96.50;;;;;;5126515;28;19908;-42
2021/08/02 08:29:42;;;;;;;;;;;26.40;96.20;;;;;;5126250;28;19914;-46
2021/08/02 08:32:08;;;;;;;;;;;26.40;96.30;;;;;;5125734;28;19982;-42
2021/08/02 08:34:34;;;;;;;;;;;26.40;96.20;;;;;;5126120;28;19968;-45
2021/08/02 08:37:00;;;;;;;;;;;26.40;96.20;;;;;;5125980;28;19915;-42
2021/08/02 08:39:26;;;;;;;;;;;26.50;96.20;;;;;;5125792;28;19974;-42
2021/08/02 08:41:53;;;;;;;;;;;26.40;96.20;;;;;;5124734;28;19926;-53
2021/08/02 08:44:20;;;;;;;;;;;26.40;96.10;;;;;;5125825;28;19908;-43
2021/08/02 08:46:46;;;;;;;;;;;26.40;96.20;;;;;;5125661;28;19904;-44
2021/08/02 08:49:13;;;;;;;;;;;26.40;96.10;;;;;;5125622;28;19972;-43
2021/08/02 08:51:39;;;;;;;;;;;26.40;96.10;;;;;;5125550;28;20190;-52
2021/08/02 08:54:06;;;;;;;;;;;26.40;96.20;;;;;;5125682;28;20138;-50
2021/08/02 08:56:32;;;;;;;;;;;26.40;96.10;;;;;;5125410;28;19978;-51
2021/08/02 08:58:59;;;;;;;;;;;26.40;96.20;;;;;;5125617;28;19971;-49
2021/08/02 09:01:26;;;;;;;;;;;26.40;96.20;;;;;;5125428;28;19942;-50
2021/08/02 09:03:53;;;;;;;;;;;26.40;96.20;;;;;;5125819;28;19908;-47
2021/08/02 09:06:19;;;;;;;;;;;26.40;96.10;;;;;;5125330;28;19914;-45
2021/08/02 09:08:45;;;;;;;;;;;26.40;96.10;;;;;;5125843;28;19971;-46
2021/08/02 09:11:18;;;;;;;;;;;26.40;96.10;;;;;;5125187;28;19914;-45
2021/08/02 09:13:44;;;;;;;;;;;26.40;96.00;;;;;;5125979;28;19953;-45
2021/08/02 09:16:11;;;;;;;;;;;26.40;96.00;;;;;;5125465;28;20108;-53
2021/08/02 09:18:38;;;;;;;;;;;26.40;96.00;;;;;;5125091;28;19971;-51
2021/08/02 09:21:07;;;;;;;;;;;26.30;96.00;;;;;;5125403;28;19912;-49
2021/08/02 09:23:33;;;;;;;;;;;26.30;96.00;;;;;;5125661;28;19907;-50
2021/08/02 09:26:01;;;;;;;;;;;26.40;95.90;;;;;;5125133;28;19907;-50
2021/08/02 09:28:28;;;;;;;;;;;26.40;95.90;;;;;;5125586;28;20161;-53
2021/08/02 09:30:54;;;;;;;;;;;26.40;95.90;;;;;;5125437;28;20129;-45
2021/08/02 09:33:20;;;;;;;;;;;26.40;95.90;;;;;;5125192;28;19944;-47
2021/08/02 09:35:51;;;;;;;;;;;26.40;95.90;;;;;;5124957;28;19953;-45
2021/08/02 09:38:19;;;;;;;;;;;26.40;95.90;;;;;;5125377;28;20145;-50
2021/08/02 09:40:47;;;;;;;;;;;26.40;96.00;;;;;;5124810;28;19915;-45
2021/08/02 09:43:16;;;;;;;;;;;26.30;95.90;;;;;;5125333;28;19908;-45
2021/08/02 09:45:44;;;;;;;;;;;26.30;95.90;;;;;;5124753;28;19939;-46
2021/08/02 09:48:10;;;;;;;;;;;26.30;96.00;;;;;;5125285;28;20114;-45
2021/08/02 09:50:37;;;;;;;;;;;26.30;96.00;;;;;;5106680;28;20195;-47
2021/08/02 09:53:03;;;;;;;;;;;26.30;96.00;;;;;;5124871;28;20103;-43
2021/08/02 09:55:29;;;;;;;;;;;26.30;96.10;;;;;;5124699;28;20099;-49
2021/08/02 09:57:56;;;;;;;;;;;26.30;96.10;;;;;;5106729;28;20111;-46
2021/08/02 10:00:22;;;;;;;;;;;26.30;96.10;;;;;;5124896;28;19931;-43
2021/08/02 10:02:50;;;;;;;;;;;26.30;96.10;;;;;;5124507;28;19966;-46
2021/08/02 10:05:20;;;;;;;;;;;26.30;96.10;;;;;;5124986;28;19915;-47
2021/08/02 10:07:46;;;;;;;;;;;26.30;96.20;;;;;;5124976;28;19982;-46
2021/08/02 10:10:13;;;;;;;;;;;26.30;96.20;;;;;;5124657;28;19915;-47
2021/08/02 10:12:44;;;;;;;;;;;26.30;96.20;;;;;;5124810;28;19908;-44
2021/08/02 10:15:15;;;;;;;;;;;26.30;96.20;;;;;;5124640;28;19915;-51
2021/08/02 10:17:45;;;;;;;;;;;26.30;96.20;;;;;;5125002;28;19908;-50
2021/08/02 10:20:25;;;;;;;;;;;26.30;96.20;;;;;;5124576;28;19908;-50
2021/08/02 10:22:52;;;;;;;;;;;26.20;96.20;;;;;;5124364;28;19939;-47
2021/08/02 10:25:18;;;;;;;;;;;26.20;96.20;;;;;;5124533;28;19908;-48
2021/08/02 10:27:44;;;;;;;;;;;26.30;96.20;;;;;;5124721;28;19942;-47
2021/08/02 10:30:21;;;;;;;;;;;26.30;96.20;;;;;;5124648;28;20211;-46
2021/08/02 10:32:54;;;;;;;;;;;26.30;96.10;;;;;;5124853;28;20117;-52
2021/08/02 10:35:30;;;;;;;;;;;26.20;96.10;;;;;;5106381;28;19947;-44
2021/08/02 10:38:01;;;;;;;;;;;26.30;96.20;;;;;;5124817;28;19908;-45
2021/08/02 10:40:28;;;;;;;;;;;26.30;96.20;;;;;;5124455;28;19942;-44
2021/08/02 10:42:54;;;;;;;;;;;26.20;96.20;;;;;;5124780;28;19930;-47
2021/08/02 10:45:30;;;;;;;;;;;26.20;96.20;;;;;;5124686;28;19908;-47
2021/08/02 10:47:57;;;;;;;;;;;26.20;96.20;;;;;;5124810;28;19915;-47
2021/08/02 10:50:24;;;;;;;;;;;26.30;96.20;;;;;;5124238;28;19907;-49
2021/08/02 10:52:51;;;;;;;;;;;26.30;96.20;;;;;;5124389;28;19927;-52
2021/08/02 10:55:17;;;;;;;;;;;26.20;96.20;;;;;;5124322;28;19903;-52
2021/08/02 10:57:44;;;;;;;;;;;26.30;96.20;;;;;;5124620;28;19915;-51
2021/08/02 11:00:19;;;;;;;;;;;26.20;96.10;;;;;;5106092;28;19939;-43
2021/08/02 11:02:53;;;;;;;;;;;26.20;96.10;;;;;;5124249;28;19939;-43
2021/08/02 11:05:20;;;;;;;;;;;26.20;96.20;;;;;;5107317;28;19911;-49
2021/08/02 11:07:47;;;;;;;;;;;26.20;96.20;;;;;;5128230;28;19935;-46
2021/08/02 11:10:14;;;;;;;;;;;26.20;96.20;;;;;;5127691;28;19911;-45
2021/08/02 11:12:44;;;;;;;;;;;26.20;96.10;;;;;;5127928;28;20180;-48
2021/08/02 11:15:11;;;;;;;;;;;26.20;96.10;;;;;;5127479;28;19911;-44
2021/08/02 11:17:40;;;;;;;;;;;26.20;96.10;;;;;;5127729;28;19911;-54
2021/08/02 11:20:08;;;;;;;;;;;26.20;96.10;;;;;;5127715;28;19904;-51
2021/08/02 11:22:51;;;;;;;;;;;26.20;96.10;;;;;;5127794;28;19915;-50
2021/08/02 11:25:21;;;;;;;;;;;26.20;96.10;;;;;;5127501;28;19907;-44
2021/08/02 11:27:51;;;;;;;;;;;26.20;96.10;;;;;;5127784;28;19979;-49
2021/08/02 11:30:17;;;;;;;;;;;26.20;96.00;;;;;;5127526;28;19973;-45
2021/08/02 11:32:44;;;;;;;;;;;26.20;96.00;;;;;;5127837;28;20022;-49
2021/08/02 11:35:11;;;;;;;;;;;26.20;95.90;;;;;;5128001;28;19904;-48
2021/08/02 11:37:37;;;;;;;;;;;26.20;95.90;;;;;;5128059;28;19935;-46
2021/08/02 11:40:08;;;;;;;;;;;26.20;95.90;;;;;;5128465;28;20215;-45
2021/08/02 11:42:34;;;;;;;;;;;26.20;95.90;;;;;;5127282;28;19930;-45
2021/08/02 11:45:02;;;;;;;;;;;26.20;95.90;;;;;;5127314;28;20211;-44
2021/08/02 11:47:32;;;;;;;;;;;26.20;95.90;;;;;;5127401;28;19911;-47
2021/08/02 11:49:59;;;;;;;;;;;26.20;95.90;;;;;;5127077;28;19927;-49
2021/08/02 11:52:26;;;;;;;;;;;26.10;95.90;;;;;;5127617;28;19920;-44
2021/08/02 11:55:01;;;;;;;;;;;26.20;96.00;;;;;;5127201;28;20188;-46
2021/08/02 11:57:27;;;;;;;;;;;26.20;95.90;;;;;;5127349;28;19939;-43
2021/08/02 11:59:58;;;;;;;;;;;26.20;95.90;;;;;;5108991;28;19904;-42
2021/08/02 12:02:31;;;;;;;;;;;26.20;95.90;;;;;;5127458;28;19922;-43
2021/08/02 12:04:58;;;;;;;;;;;26.20;95.90;;;;;;5126773;28;19945;-44
2021/08/02 12:07:27;;;;;;;;;;;26.20;95.90;;;;;;5108592;28;19919;-46
2021/08/02 12:09:54;;;;;;;;;;;26.20;96.10;;;;;;5127038;28;19903;-42
2021/08/02 12:12:21;;;;;;;;;;;26.20;95.90;;;;;;5127152;28;19983;-41
2021/08/02 12:14:47;;;;;;;;;;;26.20;95.90;;;;;;5126610;28;20253;-44
2021/08/02 12:17:13;;;;;;;;;;;26.20;95.90;;;;;;5126588;28;19953;-43
2021/08/02 12:19:45;;;;;;;;;;;26.20;95.80;;;;;;5126762;28;19966;-47
2021/08/02 12:22:12;;;;;;;;;;;26.20;95.80;;;;;;5126317;28;19915;-43
2021/08/02 12:24:51;;;;;;;;;;;26.20;95.70;;;;;;5126728;28;20210;-49
2021/08/02 12:27:18;;;;;;;;;;;26.20;95.70;;;;;;5127295;28;19918;-42
2021/08/02 12:29:54;;;;;;;;;;;26.20;95.60;;;;;;5126244;28;19994;-42
2021/08/02 12:32:21;;;;;;;;;;;26.20;95.70;;;;;;5108031;28;19912;-45
2021/08/02 12:34:47;;;;;;;;;;;26.20;95.70;;;;;;5126245;28;19926;-43
2021/08/02 12:37:14;;;;;;;;;;;26.20;95.60;;;;;;5108122;28;19987;-47
2021/08/02 12:39:40;;;;;;;;;;;26.20;95.60;;;;;;5126021;28;19934;-46
2021/08/02 12:42:06;;;;;;;;;;;26.20;95.60;;;;;;5126370;28;19957;-44
2021/08/02 12:44:32;;;;;;;;;;;26.20;95.50;;;;;;5126064;28;20184;-49
2021/08/02 12:46:59;;;;;;;;;;;26.20;95.50;;;;;;5125906;28;19940;-44
2021/08/02 12:49:25;;;;;;;;;;;26.20;95.60;;;;;;5126047;28;20238;-46
2021/08/02 12:51:51;;;;;;;;;;;26.20;95.60;;;;;;5125699;28;19986;-43
2021/08/02 12:54:18;;;;;;;;;;;26.20;95.60;;;;;;5125554;28;19966;-45
2021/08/02 12:56:53;;;;;;;;;;;26.20;95.60;;;;;;5123173;28;19911;-49
2021/08/02 12:59:20;;;;;;;;;;;26.20;95.60;;;;;;5120684;28;19908;-47
2021/08/02 13:01:46;;;;;;;;;;;26.20;95.60;;;;;;5124654;28;20227;-44
2021/08/02 13:04:12;;;;;;;;;;;26.20;95.60;;;;;;5122787;28;20200;-46
2021/08/02 13:06:38;;;;;;;;;;;26.20;95.60;;;;;;5107160;28;19904;-49
2021/08/02 13:09:05;;;;;;;;;;;26.20;95.60;;;;;;5126567;28;20096;-43
2021/08/02 13:11:31;;;;;;;;;;;26.30;95.60;;;;;;5125241;28;20211;-49
2021/08/02 13:13:57;;;;;;;;;;;26.20;95.60;;;;;;5125755;28;19904;-47
2021/08/02 13:16:23;;;;;;;;;;;26.30;95.70;;;;;;5125301;28;19942;-47
2021/08/02 13:18:53;;;;;;;;;;;26.30;95.70;;;;;;5125865;28;20122;-45
2021/08/02 13:21:19;;;;;;;;;;;26.30;95.70;;;;;;5123610;28;19911;-44
2021/08/02 13:29:14;;;;;;;;;;;26.20;95.50;;;;;;5104180;28;19998;-46
2021/08/02 13:31:44;;;;;;;;;;;26.20;95.50;;;;;;5104617;28;19904;-43
2021/08/02 13:34:11;;;;;;;;;;;26.20;95.50;;;;;;5104683;28;19904;-40
2021/08/02 13:36:37;;;;;;;;;;;26.20;95.50;;;;;;5113863;28;20218;-39
2021/08/02 13:39:04;;;;;;;;;;;26.20;95.50;;;;;;5124793;28;20200;-44
2021/08/02 13:41:30;;;;;;;;;;;26.20;95.50;;;;;;5124734;28;20139;-39
2021/08/02 13:43:57;;;;;;;;;;;26.20;95.60;;;;;;5106705;28;20119;-39
2021/08/02 13:46:24;;;;;;;;;;;26.10;95.60;;;;;;5125130;28;19920;-41
2021/08/02 13:48:50;;;;;;;;;;;26.10;95.70;;;;;;5125494;28;20234;-48
2021/08/02 13:51:16;;;;;;;;;;;26.10;95.60;;;;;;5125145;28;20193;-45
2021/08/02 13:53:43;;;;;;;;;;;26.10;95.60;;;;;;5125352;28;19912;-39
2021/08/02 13:56:09;;;;;;;;;;;26.10;95.60;;;;;;5124959;28;19908;-42
2021/08/02 13:58:37;;;;;;;;;;;26.10;95.60;;;;;;5125290;28;19908;-41
2021/08/02 14:01:03;;;;;;;;;;;26.20;95.60;;;;;;5124704;28;20200;-39
2021/08/02 14:03:29;;;;;;;;;;;26.10;95.60;;;;;;5125086;28;19908;-38
2021/08/02 14:05:55;;;;;;;;;;;26.20;95.50;;;;;;5124658;28;19908;-40
2021/08/02 14:08:21;;;;;;;;;;;26.20;95.50;;;;;;5106773;28;19907;-42
2021/08/02 14:10:47;;;;;;;;;;;26.20;95.50;;;;;;5124714;28;19908;-50
2021/08/02 14:13:14;;;;;;;;;;;26.20;95.60;;;;;;5123386;28;19908;-48
2021/08/02 14:15:51;;;;;;;;;;;26.30;95.50;;;;;;5123241;28;19908;-46
2021/08/02 14:18:24;;;;;;;;;;;26.30;95.40;;;;;;5124237;28;19908;-45
2021/08/02 14:20:50;;;;;;;;;;;26.40;95.40;;;;;;5105350;28;19908;-45
2021/08/02 14:23:18;;;;;;;;;;;26.40;95.30;;;;;;5106326;28;19911;-42
2021/08/02 14:25:44;;;;;;;;;;;26.40;95.30;;;;;;5124445;28;19907;-48
2021/08/02 14:28:10;;;;;;;;;;;26.40;95.20;;;;;;5124779;28;20212;-42